Time;durP1;ratioP1;P1;durP2;ratioP2;P2;SDS_P1;SDS_P2;PMS_P1;PMS_P2;Temp;Humidity;BMP_temperature;BMP_pressure;BME280_temperature;BME280_humidity;BME280_pressure;Samples;Min_cycle;Max_cycle;Signal;HPM_P1;HPM_P2
2022/10/04 00:00:26;;;;;;;4.90;2.28;;;12.10;99.90;;;;;;5072363;28;20040;-68
2022/10/04 00:02:57;;;;;;;4.30;1.83;;;12.10;99.90;;;;;;5055092;28;20048;-68
2022/10/04 00:05:24;;;;;;;4.75;2.33;;;12.10;99.90;;;;;;5073230;28;20043;-68
2022/10/04 00:07:55;;;;;;;2.90;1.92;;;12.10;99.90;;;;;;5054996;28;20041;-69
2022/10/04 00:10:39;;;;;;;5.88;2.00;;;12.10;99.90;;;;;;5073112;28;20043;-68
2022/10/04 00:13:13;;;;;;;5.47;2.13;;;12.10;99.90;;;;;;5073070;28;20041;-68
2022/10/04 00:15:39;;;;;;;5.53;1.80;;;12.10;99.90;;;;;;5072931;28;20475;-68
2022/10/04 00:18:11;;;;;;;4.57;1.70;;;12.10;99.90;;;;;;5072732;28;20059;-68
2022/10/04 00:20:55;;;;;;;3.38;2.13;;;12.10;99.90;;;;;;5072929;28;20056;-68
2022/10/04 00:23:23;;;;;;;8.15;2.40;;;12.10;99.90;;;;;;5072896;28;20040;-68
2022/10/04 00:25:54;;;;;;;5.25;2.75;;;12.00;99.90;;;;;;5072439;28;20125;-68
2022/10/04 00:28:20;;;;;;;4.78;2.47;;;12.00;99.90;;;;;;5054560;28;20040;-68
2022/10/04 00:31:06;;;;;;;5.93;2.83;;;12.40;99.90;;;;;;5054472;28;20036;-68
2022/10/04 00:33:39;;;;;;;4.57;2.10;;;12.00;99.90;;;;;;5072662;28;20613;-68
2022/10/04 00:36:23;;;;;;;5.13;2.83;;;12.10;99.90;;;;;;5054490;28;20041;-69
2022/10/04 00:39:03;;;;;;;6.75;2.60;;;12.00;99.90;;;;;;5072173;28;20041;-68
2022/10/04 00:41:47;;;;;;;4.78;2.60;;;12.00;99.90;;;;;;5072283;28;20052;-68
2022/10/04 00:44:35;;;;;;;3.75;2.63;;;12.00;99.90;;;;;;5072527;28;20036;-68
2022/10/04 00:47:11;;;;;;;5.93;2.53;;;12.10;99.90;;;;;;5072079;28;20047;-68
2022/10/04 00:49:40;;;;;;;4.05;2.38;;;12.00;99.90;;;;;;5072429;28;20080;-68
2022/10/04 00:52:13;;;;;;;5.68;2.55;;;12.00;99.90;;;;;;5054438;28;20044;-68
2022/10/04 00:54:45;;;;;;;4.60;2.92;;;12.00;99.90;;;;;;5054093;28;20053;-68
2022/10/04 00:57:19;;;;;;;4.50;2.70;;;12.00;99.90;;;;;;5072382;28;20044;-69
2022/10/04 01:00:03;;;;;;;5.80;2.85;;;12.00;99.90;;;;;;5054110;28;20040;-68
2022/10/04 01:02:50;;;;;;;7.25;3.15;;;12.00;99.90;;;;;;5072241;28;20041;-68
2022/10/04 01:05:35;;;;;;;6.45;2.90;;;12.00;99.90;;;;;;5072323;28;20051;-69
2022/10/04 01:08:14;;;;;;;5.07;3.03;;;12.00;99.90;;;;;;5071903;28;20044;-68
2022/10/04 01:10:49;;;;;;;5.75;3.08;;;11.90;99.90;;;;;;5071896;28;20094;-68
2022/10/04 01:13:20;;;;;;;3.58;2.33;;;11.90;99.90;;;;;;5071307;28;20052;-68
2022/10/04 01:15:54;;;;;;;4.53;2.63;;;11.90;99.90;;;;;;5072142;28;20059;-68
2022/10/04 01:18:19;;;;;;;3.97;2.60;;;11.90;99.90;;;;;;5071611;28;20045;-68
2022/10/04 01:21:05;;;;;;;5.60;2.90;;;11.90;99.90;;;;;;5053797;28;20051;-68
2022/10/04 01:23:40;;;;;;;3.40;2.53;;;11.80;99.90;;;;;;5072114;28;20036;-69
2022/10/04 01:26:28;;;;;;;10.77;3.03;;;11.80;99.90;;;;;;5071734;28;20048;-68
2022/10/04 01:28:57;;;;;;;3.88;2.80;;;11.80;99.90;;;;;;5071570;28;20040;-68
2022/10/04 01:31:27;;;;;;;4.50;2.85;;;11.80;99.90;;;;;;5054001;28;20055;-68
2022/10/04 01:33:54;;;;;;;4.18;2.67;;;11.80;99.90;;;;;;5053765;28;20098;-68
2022/10/04 01:36:20;;;;;;;3.45;2.58;;;11.80;99.90;;;;;;5071930;28;20040;-69
2022/10/04 01:38:47;;;;;;;6.07;2.72;;;11.80;99.90;;;;;;5071806;28;20043;-68
2022/10/04 01:41:16;;;;;;;6.32;3.08;;;11.80;99.90;;;;;;5071885;28;20423;-68
2022/10/04 01:43:47;;;;;;;13.20;2.85;;;11.80;99.90;;;;;;5053939;28;20041;-68
2022/10/04 01:46:21;;;;;;;13.68;3.10;;;11.80;99.90;;;;;;5053902;28;20486;-68
2022/10/04 01:48:47;;;;;;;4.55;2.85;;;11.70;99.90;;;;;;5071735;28;20052;-68
2022/10/04 01:51:26;;;;;;;4.93;2.60;;;11.80;99.90;;;;;;5071810;28;20483;-68
2022/10/04 01:54:01;;;;;;;2.55;2.03;;;11.80;99.90;;;;;;5071773;28;20048;-68
2022/10/04 01:56:38;;;;;;;6.43;2.90;;;11.80;99.90;;;;;;5071769;28;20041;-68
2022/10/04 01:59:11;;;;;;;6.97;2.63;;;11.80;99.90;;;;;;5071601;28;20087;-68
2022/10/04 02:01:49;;;;;;;7.13;2.85;;;11.80;99.90;;;;;;5053462;28;20128;-68
2022/10/04 02:04:22;;;;;;;7.57;2.53;;;11.80;99.90;;;;;;5053419;28;20052;-68
2022/10/04 02:06:53;;;;;;;4.43;2.88;;;11.80;99.90;;;;;;5071641;28;20063;-68
2022/10/04 02:09:23;;;;;;;5.57;2.80;;;11.80;99.90;;;;;;5071708;28;20036;-69
2022/10/04 02:11:51;;;;;;;7.10;3.33;;;11.80;99.90;;;;;;5071574;28;20092;-70
2022/10/04 02:14:21;;;;;;;3.28;2.50;;;11.80;99.90;;;;;;5071293;28;20048;-68
2022/10/04 02:16:52;;;;;;;4.60;2.30;;;11.80;99.90;;;;;;5071637;28;20086;-69
2022/10/04 02:19:21;;;;;;;5.05;2.55;;;11.80;99.90;;;;;;5071446;28;20514;-68
2022/10/04 02:21:48;;;;;;;3.70;2.75;;;11.80;99.90;;;;;;5071453;28;20048;-68
2022/10/04 02:24:15;;;;;;;4.32;2.90;;;11.80;99.90;;;;;;5055787;28;20032;-68
2022/10/04 02:26:41;;;;;;;7.60;3.20;;;11.70;99.90;;;;;;5074822;28;20040;-68
2022/10/04 02:29:09;;;;;;;7.10;2.75;;;11.70;99.90;;;;;;5074944;28;20491;-69
2022/10/04 02:34:23;;;;;;;7.55;3.42;;;11.70;99.90;;;;;;5074961;28;20072;-68
2022/10/04 02:36:50;;;;;;;7.75;3.20;;;11.90;99.90;;;;;;5074853;28;20072;-68
2022/10/04 02:39:20;;;;;;;4.28;2.47;;;11.60;99.90;;;;;;5074814;28;20106;-68
2022/10/04 02:41:51;;;;;;;3.47;2.25;;;11.80;99.90;;;;;;5074795;28;20040;-68
2022/10/04 02:44:23;;;;;;;6.10;3.00;;;11.50;99.90;;;;;;5074775;28;20032;-68
2022/10/04 02:46:56;;;;;;;5.32;2.67;;;11.50;99.90;;;;;;5074687;28;20040;-68
2022/10/04 02:49:31;;;;;;;7.32;3.13;;;11.50;99.90;;;;;;5074749;28;20384;-68
2022/10/04 02:52:13;;;;;;;3.42;2.50;;;11.50;99.90;;;;;;5074618;28;20065;-68
2022/10/04 02:54:48;;;;;;;4.90;2.50;;;11.40;99.90;;;;;;5074630;28;20059;-68
2022/10/04 02:57:20;;;;;;;5.95;2.60;;;11.40;99.90;;;;;;5074329;28;20094;-68
2022/10/04 02:59:46;;;;;;;7.03;2.75;;;11.30;99.90;;;;;;5074186;28;20047;-68
2022/10/04 03:02:25;;;;;;;4.03;2.63;;;11.30;99.90;;;;;;5074172;28;20512;-68
2022/10/04 03:04:55;;;;;;;5.22;3.05;;;11.30;99.90;;;;;;5056147;28;20044;-68
2022/10/04 03:07:22;;;;;;;4.45;2.67;;;11.70;99.90;;;;;;5056424;28;20127;-69
2022/10/04 03:09:49;;;;;;;4.35;2.80;;;11.30;99.90;;;;;;5074030;28;20051;-68
2022/10/04 03:12:15;;;;;;;7.55;3.60;;;11.30;99.90;;;;;;5074248;28;20491;-68
2022/10/04 03:14:41;;;;;;;4.07;2.55;;;11.40;99.90;;;;;;5056045;28;20047;-69
2022/10/04 03:17:07;;;;;;;6.88;2.92;;;11.40;99.90;;;;;;5073937;28;20044;-68
2022/10/04 03:19:34;;;;;;;7.13;2.92;;;11.40;99.90;;;;;;5074047;28;20087;-68
2022/10/04 03:22:18;;;;;;;4.75;2.80;;;11.40;99.90;;;;;;5073821;28;20051;-68
2022/10/04 03:24:46;;;;;;;5.28;3.25;;;11.40;99.90;;;;;;5056038;28;20051;-68
2022/10/04 03:27:20;;;;;;;4.18;2.80;;;11.30;99.90;;;;;;5074020;28;20041;-68
2022/10/04 03:29:46;;;;;;;5.43;2.78;;;11.40;99.90;;;;;;5073940;28;20434;-68
2022/10/04 03:32:14;;;;;;;5.40;3.03;;;11.30;99.90;;;;;;5055641;28;20056;-68
2022/10/04 03:34:47;;;;;;;4.43;2.53;;;11.30;99.90;;;;;;5073050;28;20044;-68
2022/10/04 03:37:15;;;;;;;4.75;2.60;;;11.30;99.90;;;;;;5055567;28;20044;-68
2022/10/04 03:39:44;;;;;;;4.72;2.65;;;11.30;99.90;;;;;;5073613;28;20083;-68
2022/10/04 03:42:12;;;;;;;4.07;2.65;;;11.20;99.90;;;;;;5073690;28;20032;-68
2022/10/04 03:44:38;;;;;;;5.00;2.88;;;11.20;99.90;;;;;;5055707;28;20431;-68
2022/10/04 03:47:13;;;;;;;6.55;3.25;;;11.20;99.90;;;;;;5073602;28;20060;-68
2022/10/04 03:49:41;;;;;;;4.60;2.63;;;11.20;99.90;;;;;;5055225;28;20051;-68
2022/10/04 03:52:12;;;;;;;10.32;2.47;;;11.20;99.90;;;;;;5055225;28;20092;-68
2022/10/04 03:54:39;;;;;;;5.55;2.30;;;11.20;99.90;;;;;;5055229;28;20060;-68
2022/10/04 03:57:11;;;;;;;5.40;3.00;;;11.20;99.90;;;;;;5073366;28;20047;-68
2022/10/04 03:59:38;;;;;;;4.47;2.55;;;11.10;99.90;;;;;;5073240;28;20120;-68
2022/10/04 04:02:13;;;;;;;4.28;2.50;;;11.10;99.90;;;;;;5055397;28;20155;-68
2022/10/04 04:04:49;;;;;;;5.63;2.42;;;11.10;99.90;;;;;;5055065;28;20119;-68
2022/10/04 04:07:53;;;;;;;6.13;2.85;;;11.10;99.90;;;;;;5055490;28;20045;-68
2022/10/04 04:10:26;;;;;;;5.25;2.95;;;11.10;99.90;;;;;;5055153;28;20048;-68
2022/10/04 04:13:12;;;;;;;3.15;2.58;;;11.10;99.90;;;;;;5072762;28;20049;-68
2022/10/04 04:15:42;;;;;;;7.07;3.25;;;11.10;99.90;;;;;;5054793;28;20037;-68
2022/10/04 04:18:25;;;;;;;8.20;3.45;;;11.10;99.90;;;;;;5054817;28;20060;-68
2022/10/04 04:20:57;;;;;;;7.28;3.22;;;11.10;99.90;;;;;;5072969;28;20111;-68
2022/10/04 04:23:37;;;;;;;3.92;2.97;;;11.10;99.90;;;;;;5072954;28;20039;-67
2022/10/04 04:26:47;;;;;;;7.65;3.20;;;11.20;99.90;;;;;;5072798;28;20040;-68
2022/10/04 04:29:40;;;;;;;7.85;2.95;;;11.10;99.90;;;;;;5054755;28;20510;-68
2022/10/04 04:32:15;;;;;;;6.63;3.10;;;11.10;99.90;;;;;;5054816;28;20055;-68
2022/10/04 04:34:49;;;;;;;9.32;2.85;;;11.10;99.90;;;;;;5072705;28;20434;-69
2022/10/04 04:37:14;;;;;;;8.75;3.28;;;11.10;99.90;;;;;;5054721;28;20044;-68
2022/10/04 04:39:40;;;;;;;8.80;3.72;;;11.10;99.90;;;;;;5072142;28;20048;-69
2022/10/04 04:42:09;;;;;;;6.75;2.90;;;11.10;99.90;;;;;;5054513;28;20053;-68
2022/10/04 04:44:37;;;;;;;5.00;3.35;;;11.10;99.90;;;;;;5054294;28;20083;-68
2022/10/04 04:47:09;;;;;;;5.00;3.03;;;11.10;99.90;;;;;;5072387;28;20115;-68
2022/10/04 04:49:39;;;;;;;4.93;3.45;;;11.00;99.90;;;;;;5072481;28;20126;-68
2022/10/04 04:52:07;;;;;;;3.50;2.73;;;11.00;99.90;;;;;;5072267;28;20044;-69
2022/10/04 04:54:33;;;;;;;5.90;3.80;;;10.90;99.90;;;;;;5072211;28;20432;-68
2022/10/04 04:56:59;;;;;;;6.97;3.38;;;10.90;99.90;;;;;;5072092;28;20190;-69
2022/10/04 04:59:26;;;;;;;11.07;3.50;;;10.80;99.90;;;;;;5072281;28;20115;-68
2022/10/04 05:01:52;;;;;;;7.78;3.90;;;10.80;99.90;;;;;;5072079;28;20403;-69
2022/10/04 05:04:22;;;;;;;9.60;3.53;;;10.80;99.90;;;;;;5071967;28;20036;-69
2022/10/04 05:07:15;;;;;;;8.32;3.42;;;10.70;99.90;;;;;;5053948;28;20040;-68
2022/10/04 05:09:40;;;;;;;7.13;4.13;;;10.70;99.90;;;;;;5072251;28;20044;-68
2022/10/04 05:12:21;;;;;;;10.25;4.07;;;10.70;99.90;;;;;;5071861;28;20048;-68
2022/10/04 05:14:51;;;;;;;8.20;4.70;;;10.70;99.90;;;;;;5053928;28;20113;-68
2022/10/04 05:17:19;;;;;;;6.70;4.15;;;10.70;99.90;;;;;;5071885;28;20048;-68
2022/10/04 05:19:45;;;;;;;8.38;4.55;;;10.70;99.90;;;;;;5053806;28;20049;-68
2022/10/04 05:22:16;;;;;;;8.43;4.13;;;10.80;99.90;;;;;;5071812;28;20071;-68
2022/10/04 05:24:45;;;;;;;7.90;4.47;;;10.80;99.90;;;;;;5054043;28;20484;-68
2022/10/04 05:27:27;;;;;;;8.52;4.32;;;10.80;99.90;;;;;;5071959;28;20545;-69
2022/10/04 05:30:27;;;;;;;8.52;4.10;;;10.80;99.90;;;;;;5072048;28;20510;-68
2022/10/04 05:32:58;;;;;;;7.10;4.47;;;10.80;99.90;;;;;;5071984;28;20123;-69
2022/10/04 05:35:26;;;;;;;10.50;4.63;;;10.90;99.90;;;;;;5071614;28;20044;-68
2022/10/04 05:38:12;;;;;;;6.45;4.30;;;11.10;99.90;;;;;;5071934;28;20373;-66
2022/10/04 05:40:43;;;;;;;6.47;4.55;;;10.80;99.90;;;;;;5071569;28;20052;-69
2022/10/04 05:43:36;;;;;;;10.73;4.15;;;10.90;99.90;;;;;;5071816;28;20032;-69
2022/10/04 05:46:35;;;;;;;5.75;4.03;;;10.70;99.90;;;;;;5071852;28;20044;-69
2022/10/04 05:49:09;;;;;;;7.70;3.88;;;10.70;99.90;;;;;;5053525;28;20055;-68
2022/10/04 05:51:54;;;;;;;7.38;4.40;;;10.70;99.90;;;;;;5071877;28;20048;-69
2022/10/04 05:54:27;;;;;;;5.93;3.90;;;10.70;99.90;;;;;;5053509;28;20123;-69
2022/10/04 05:57:23;;;;;;;9.77;5.10;;;10.70;99.90;;;;;;5071729;28;20502;-68
2022/10/04 06:00:19;;;;;;;6.80;4.15;;;10.70;99.90;;;;;;5056764;28;20056;-68
2022/10/04 06:03:03;;;;;;;7.00;4.65;;;10.60;99.90;;;;;;5075325;28;20035;-68
2022/10/04 06:05:50;;;;;;;10.85;5.10;;;10.60;99.90;;;;;;5075425;28;20037;-69
2022/10/04 06:08:31;;;;;;;5.55;4.72;;;10.60;99.90;;;;;;5075451;28;20484;-68
2022/10/04 06:11:24;;;;;;;10.65;5.15;;;10.60;99.90;;;;;;5075470;28;20183;-68
2022/10/04 06:13:58;;;;;;;7.72;4.63;;;10.50;99.90;;;;;;5075323;28;20037;-69
2022/10/04 06:17:04;;;;;;;6.55;4.22;;;10.50;99.90;;;;;;5075169;28;20079;-70
2022/10/04 06:20:04;;;;;;;6.88;4.63;;;10.60;99.90;;;;;;5025709;28;20410;-68
2022/10/04 06:22:31;;;;;;;8.05;4.65;;;10.50;99.90;;;;;;5057269;28;20396;-69
2022/10/04 06:25:05;;;;;;;9.50;4.53;;;10.50;99.90;;;;;;5075178;28;20040;-68
2022/10/04 06:27:51;;;;;;;7.00;4.40;;;10.60;99.90;;;;;;5075128;28;20426;-69
2022/10/04 06:30:19;;;;;;;8.50;4.72;;;10.50;99.90;;;;;;5075097;28;20067;-68
2022/10/04 06:33:17;;;;;;;6.68;4.40;;;10.50;99.90;;;;;;5075042;28;20048;-68
2022/10/04 06:35:45;;;;;;;12.60;5.15;;;10.60;99.90;;;;;;5053361;28;20083;-69
2022/10/04 06:38:33;;;;;;;7.95;5.07;;;10.60;99.90;;;;;;5074933;28;20044;-69
2022/10/04 06:41:19;;;;;;;7.65;4.55;;;10.60;99.90;;;;;;5074639;28;20495;-69
2022/10/04 06:43:53;;;;;;;6.10;4.78;;;10.60;99.90;;;;;;5074534;28;20036;-68
2022/10/04 06:46:27;;;;;;;7.25;5.30;;;10.70;99.90;;;;;;5074834;28;20078;-68
2022/10/04 06:49:16;;;;;;;10.07;5.88;;;10.70;99.90;;;;;;5074776;28;20089;-68
2022/10/04 06:52:07;;;;;;;11.60;6.53;;;10.70;99.90;;;;;;5074758;28;20091;-69
2022/10/04 06:54:37;;;;;;;9.32;5.47;;;10.80;99.90;;;;;;5027359;28;20492;-68
2022/10/04 06:57:24;;;;;;;7.65;5.15;;;10.80;99.90;;;;;;5074301;28;20059;-68
2022/10/04 07:00:06;;;;;;;9.45;5.13;;;10.90;99.90;;;;;;5074192;28;20048;-69
2022/10/04 07:02:41;;;;;;;10.43;5.80;;;11.30;99.90;;;;;;5074167;28;20047;-69
2022/10/04 07:05:42;;;;;;;11.80;4.93;;;11.10;99.90;;;;;;5074504;28;20044;-68
2022/10/04 07:08:32;;;;;;;6.97;5.35;;;11.10;99.90;;;;;;5051461;28;20173;-68
2022/10/04 07:12:02;;;;;;;12.10;5.22;;;11.20;99.90;;;;;;5054925;28;20049;-68
2022/10/04 07:14:34;;;;;;;8.50;5.18;;;11.40;99.90;;;;;;4973019;28;20043;-68
2022/10/04 07:17:11;;;;;;;8.93;5.25;;;11.50;99.90;;;;;;4956837;28;20039;-68
2022/10/04 07:19:48;;;;;;;11.20;5.18;;;11.60;99.90;;;;;;5031802;28;20110;-68
2022/10/04 07:22:14;;;;;;;7.20;5.07;;;11.70;99.90;;;;;;5074140;28;20040;-68
2022/10/04 07:25:18;;;;;;;8.77;5.85;;;11.90;99.90;;;;;;5074042;28;20041;-68
2022/10/04 07:31:02;;;;;;;8.07;5.20;;;12.00;99.90;;;;;;5027564;28;20036;-68
2022/10/04 07:33:31;;;;;;;6.45;4.40;;;12.00;99.90;;;;;;5073545;28;20041;-68
2022/10/04 07:36:11;;;;;;;7.75;4.53;;;12.10;99.90;;;;;;5073559;28;20107;-67
2022/10/04 07:38:46;;;;;;;6.63;5.05;;;12.30;99.90;;;;;;5056131;28;20040;-68
2022/10/04 07:41:28;;;;;;;6.78;4.78;;;12.40;99.90;;;;;;5055402;28;20041;-69
2022/10/04 07:44:00;;;;;;;10.68;5.47;;;12.50;99.90;;;;;;5073193;28;20045;-69
2022/10/04 07:46:40;;;;;;;9.05;4.70;;;12.60;99.90;;;;;;5073486;28;20141;-68
2022/10/04 07:49:20;;;;;;;7.07;4.63;;;12.80;99.90;;;;;;5055397;28;20221;-69
2022/10/04 07:52:30;;;;;;;9.18;4.68;;;12.80;99.90;;;;;;5073192;28;20278;-68
2022/10/04 07:55:08;;;;;;;5.75;3.90;;;12.90;99.90;;;;;;5073558;28;20119;-69
2022/10/04 07:57:55;;;;;;;7.18;4.25;;;13.10;99.90;;;;;;5073435;28;20040;-66
2022/10/04 08:00:24;;;;;;;8.60;4.93;;;13.30;99.90;;;;;;5072864;28;20087;-66
2022/10/04 08:03:20;;;;;;;6.82;4.63;;;13.50;99.90;;;;;;5073487;28;20029;-66
2022/10/04 08:06:05;;;;;;;6.45;4.47;;;13.50;99.90;;;;;;5073263;28;20124;-66
2022/10/04 08:09:07;;;;;;;7.10;4.47;;;13.70;99.90;;;;;;5073162;28;20499;-66
2022/10/04 08:11:57;;;;;;;8.80;5.43;;;13.60;99.90;;;;;;5073129;28;20068;-66
2022/10/04 08:14:52;;;;;;;8.93;5.30;;;13.60;99.90;;;;;;5072855;28;20048;-66
2022/10/04 08:17:23;;;;;;;7.45;4.88;;;13.60;99.90;;;;;;5072670;28;20036;-66
2022/10/04 08:20:08;;;;;;;9.30;4.97;;;13.50;99.90;;;;;;5072545;28;20047;-66
2022/10/04 08:23:02;;;;;;;5.63;3.53;;;13.60;99.90;;;;;;5072517;28;20036;-66
2022/10/04 08:25:36;;;;;;;8.18;4.93;;;13.60;99.90;;;;;;5043103;28;20543;-67
2022/10/04 08:31:55;;;;;;;11.60;4.60;;;13.50;99.90;;;;;;5072763;28;20128;-66
2022/10/04 08:34:43;;;;;;;5.53;4.03;;;13.40;99.90;;;;;;5048256;28;20049;-65
2022/10/04 08:37:41;;;;;;;6.60;3.70;;;13.30;99.90;;;;;;5072389;28;20124;-67
2022/10/04 08:40:07;;;;;;;10.90;4.25;;;13.30;99.90;;;;;;5044463;28;20055;-66
2022/10/04 08:42:40;;;;;;;11.18;4.88;;;13.30;99.90;;;;;;5072528;28;20431;-66
2022/10/04 08:45:31;;;;;;;10.02;4.35;;;13.30;99.90;;;;;;5072230;28;20055;-67
2022/10/04 08:48:05;;;;;;;6.93;3.80;;;13.40;99.90;;;;;;5072516;28;20492;-66
2022/10/04 08:50:34;;;;;;;6.35;4.03;;;13.50;99.90;;;;;;5072457;28;20119;-66
2022/10/04 08:53:26;;;;;;;6.18;4.45;;;13.50;99.90;;;;;;5072411;28;20036;-66
2022/10/04 08:56:25;;;;;;;13.73;4.05;;;13.60;99.90;;;;;;5072140;28;20049;-66
2022/10/04 08:59:29;;;;;;;8.23;4.22;;;13.60;99.90;;;;;;5072328;28;20036;-66
2022/10/04 09:02:17;;;;;;;6.75;4.50;;;13.60;99.90;;;;;;5071788;28;20038;-67
2022/10/04 09:05:19;;;;;;;6.55;3.58;;;13.70;99.90;;;;;;5072347;28;20066;-67
2022/10/04 09:08:10;;;;;;;7.35;3.53;;;13.80;99.90;;;;;;5072301;28;20036;-67
2022/10/04 09:10:58;;;;;;;6.20;3.75;;;13.90;99.90;;;;;;5072198;28;20048;-67
2022/10/04 09:13:24;;;;;;;5.30;2.83;;;13.90;99.90;;;;;;5053895;28;20040;-67
2022/10/04 09:16:13;;;;;;;7.90;3.08;;;14.20;99.90;;;;;;5054230;28;20046;-68
2022/10/04 09:18:41;;;;;;;6.38;3.22;;;14.10;99.90;;;;;;5071568;28;20060;-67
2022/10/04 09:21:17;;;;;;;5.72;3.58;;;14.10;99.90;;;;;;5072051;28;20048;-67
2022/10/04 09:24:18;;;;;;;4.32;2.75;;;14.20;99.90;;;;;;5071830;28;20072;-68
2022/10/04 09:26:54;;;;;;;3.60;2.58;;;14.20;99.90;;;;;;5054026;28;20549;-67
2022/10/04 09:29:53;;;;;;;4.70;2.67;;;14.20;99.90;;;;;;5054343;28;20500;-68
2022/10/04 09:32:36;;;;;;;6.30;2.90;;;14.30;99.90;;;;;;5071756;28;20047;-68
2022/10/04 09:35:36;;;;;;;5.65;3.08;;;14.40;99.90;;;;;;5075836;28;20045;-68
2022/10/04 09:38:37;;;;;;;5.15;2.97;;;14.40;99.90;;;;;;5057849;28;20083;-67
2022/10/04 09:41:21;;;;;;;10.95;3.13;;;14.30;99.90;;;;;;5075787;28;20396;-68
2022/10/04 09:43:56;;;;;;;7.65;3.40;;;14.40;99.90;;;;;;5076016;28;20048;-67
2022/10/04 09:46:50;;;;;;;4.20;2.60;;;14.40;99.90;;;;;;5075971;28;20036;-68
2022/10/04 09:49:31;;;;;;;5.80;3.22;;;14.50;99.90;;;;;;5041060;28;20071;-67
2022/10/04 09:52:33;;;;;;;5.00;3.15;;;14.60;99.90;;;;;;5075795;28;20056;-67
2022/10/04 09:55:23;;;;;;;3.33;2.10;;;14.60;99.90;;;;;;5057713;28;20053;-68
2022/10/04 09:58:18;;;;;;;4.10;3.00;;;14.70;99.90;;;;;;5057532;28;20105;-68
2022/10/04 10:00:55;;;;;;;4.32;2.70;;;14.80;99.90;;;;;;5075635;28;20044;-67
2022/10/04 10:03:47;;;;;;;3.70;2.63;;;15.00;99.90;;;;;;5075389;28;20135;-68
2022/10/04 10:06:25;;;;;;;8.65;3.60;;;15.10;99.90;;;;;;5070496;28;20056;-67
2022/10/04 10:15:41;;;;;;;4.55;3.03;;;15.30;98.80;;;;;;5075326;28;20451;-68
2022/10/04 10:18:46;;;;;;;5.43;2.60;;;15.40;99.90;;;;;;5075091;28;20403;-67
2022/10/04 10:21:30;;;;;;;5.68;3.03;;;15.50;98.90;;;;;;5036627;28;20153;-67
2022/10/04 10:24:16;;;;;;;3.78;2.70;;;15.50;98.50;;;;;;5056968;28;20052;-67
2022/10/04 10:27:14;;;;;;;6.57;3.10;;;15.50;98.90;;;;;;5075011;28;20109;-68
2022/10/04 10:30:03;;;;;;;6.30;2.80;;;15.50;99.60;;;;;;5075155;28;20120;-68
2022/10/04 10:32:38;;;;;;;3.67;2.33;;;15.60;99.20;;;;;;5075033;28;20127;-68
2022/10/04 10:35:25;;;;;;;3.45;2.45;;;15.80;99.90;;;;;;5074999;28;20502;-68
2022/10/04 10:38:24;;;;;;;4.65;2.42;;;15.80;98.20;;;;;;5056986;28;20506;-67
2022/10/04 10:41:15;;;;;;;6.47;3.17;;;15.80;97.70;;;;;;5074863;28;20036;-68
2022/10/04 10:44:13;;;;;;;5.10;3.00;;;15.80;97.20;;;;;;5056557;28;20056;-68
2022/10/04 10:47:11;;;;;;;4.53;2.13;;;15.80;98.10;;;;;;5061086;28;20056;-68
2022/10/04 10:49:40;;;;;;;5.68;2.53;;;15.90;94.70;;;;;;5074777;28;20471;-68
2022/10/04 10:52:33;;;;;;;4.63;2.60;;;15.90;96.30;;;;;;5074418;28;20101;-67
2022/10/04 10:55:21;;;;;;;3.25;1.75;;;16.00;97.80;;;;;;5074604;28;20098;-68
2022/10/04 10:58:25;;;;;;;3.70;2.50;;;16.00;93.40;;;;;;5074540;28;20140;-68
2022/10/04 11:00:53;;;;;;;5.07;2.38;;;16.00;95.10;;;;;;5056213;28;20047;-67
2022/10/04 11:03:42;;;;;;;7.28;2.58;;;16.00;94.40;;;;;;5074114;28;20174;-69
2022/10/04 11:06:41;;;;;;;6.50;2.42;;;16.00;93.20;;;;;;5074450;28;20052;-68
2022/10/04 11:09:33;;;;;;;8.27;2.20;;;15.90;95.40;;;;;;5060652;28;20048;-68
2022/10/04 11:12:08;;;;;;;5.95;2.35;;;15.90;96.20;;;;;;5074309;28;20044;-68
2022/10/04 11:14:48;;;;;;;7.57;2.80;;;16.00;96.70;;;;;;5074041;28;20040;-68
2022/10/04 11:17:26;;;;;;;4.43;2.55;;;16.10;97.80;;;;;;5074261;28;20044;-68
2022/10/04 11:20:23;;;;;;;5.47;2.80;;;16.20;94.70;;;;;;5054073;28;20575;-68
2022/10/04 11:23:28;;;;;;;6.20;2.40;;;16.20;94.30;;;;;;5036133;28;20044;-68
2022/10/04 11:26:24;;;;;;;3.50;2.53;;;16.30;94.40;;;;;;5053822;28;20033;-68
2022/10/04 11:29:23;;;;;;;4.78;2.70;;;16.40;93.20;;;;;;5054031;28;20124;-68
2022/10/04 11:32:13;;;;;;;3.22;2.10;;;16.40;91.00;;;;;;5035765;28;20041;-68
2022/10/04 11:35:16;;;;;;;4.13;2.08;;;16.40;95.00;;;;;;5053861;28;20052;-69
2022/10/04 11:38:10;;;;;;;3.55;1.92;;;16.50;94.30;;;;;;5053547;28;20041;-68
2022/10/04 11:41:02;;;;;;;2.95;1.70;;;16.60;92.10;;;;;;5053402;28;20041;-69
2022/10/04 11:43:54;;;;;;;3.15;2.00;;;16.60;92.00;;;;;;5053519;28;20045;-68
2022/10/04 11:46:55;;;;;;;5.68;2.40;;;16.70;82.90;;;;;;5048717;28;20131;-69
2022/10/04 11:49:34;;;;;;;;;;;16.70;88.50;;;;;;5035899;28;20087;-69
2022/10/04 11:52:21;;;;;;;5.25;2.10;;;16.70;85.50;;;;;;5053547;28;20367;-69
2022/10/04 11:55:05;;;;;;;4.50;1.90;;;16.70;83.80;;;;;;5035620;28;20447;-69
2022/10/04 11:58:04;;;;;;;3.53;2.00;;;16.80;90.60;;;;;;5035032;28;20045;-68
2022/10/04 12:00:51;;;;;;;4.57;2.35;;;16.80;90.20;;;;;;4999133;28;20060;-68
2022/10/04 12:04:14;;;;;;;4.93;2.10;;;16.80;79.10;;;;;;5053655;28;20052;-67
2022/10/04 12:07:07;;;;;;;3.03;1.52;;;16.90;86.00;;;;;;4952689;29;20110;-68
2022/10/04 12:10:03;;;;;;;3.55;1.63;;;17.00;88.60;;;;;;4937002;29;20039;-68
2022/10/04 12:12:43;;;;;;;3.70;2.30;;;17.10;90.80;;;;;;5038202;28;20049;-68
2022/10/04 12:15:13;;;;;;;;;;;17.10;87.80;;;;;;5053464;28;20454;-66
2022/10/04 12:17:54;;;;;;;4.57;2.10;;;17.20;83.20;;;;;;5054998;28;19926;-66
2022/10/04 12:20:52;;;;;;;2.95;1.67;;;17.20;81.80;;;;;;5054821;28;20479;-66
2022/10/04 12:23:42;;;;;;;4.65;2.15;;;17.20;86.50;;;;;;5054726;28;20093;-66
2022/10/04 12:26:31;;;;;;;3.45;2.05;;;17.30;83.00;;;;;;5072930;28;20114;-65
2022/10/04 12:29:16;;;;;;;3.75;2.10;;;17.30;88.00;;;;;;5072768;28;20101;-67
2022/10/04 12:31:47;;;;;;;3.03;1.52;;;17.20;83.90;;;;;;5072472;28;20048;-68
2022/10/04 12:34:32;;;;;;;4.30;2.03;;;17.10;85.70;;;;;;5072743;28;20048;-67
2022/10/04 12:37:10;;;;;;;4.47;2.15;;;17.00;83.00;;;;;;5054453;28;20048;-68
2022/10/04 12:40:08;;;;;;;7.28;2.42;;;17.00;85.00;;;;;;5072598;28;20045;-67
2022/10/04 12:42:49;;;;;;;3.83;2.42;;;16.90;87.90;;;;;;5054362;28;20059;-67
2022/10/04 12:45:26;;;;;;;5.95;2.85;;;16.90;89.80;;;;;;5072381;28;20304;-67
2022/10/04 12:48:07;;;;;;;6.32;2.78;;;16.80;84.30;;;;;;5072628;28;20502;-66
2022/10/04 12:50:45;;;;;;;7.05;2.65;;;16.80;89.70;;;;;;5054430;28;20123;-66
2022/10/04 12:53:33;;;;;;;4.38;2.25;;;16.80;89.90;;;;;;5054882;28;20040;-65
2022/10/04 12:56:52;;;;;;;4.78;2.47;;;16.80;82.20;;;;;;5054160;28;20063;-66
2022/10/04 12:59:45;;;;;;;6.35;2.20;;;16.70;84.40;;;;;;4955063;28;20510;-66
2022/10/04 13:02:36;;;;;;;6.75;2.17;;;16.70;87.40;;;;;;5072255;28;20036;-66
2022/10/04 13:05:26;;;;;;;4.97;2.38;;;16.70;86.40;;;;;;5010133;28;20510;-69
2022/10/04 13:08:10;;;;;;;3.20;2.10;;;16.80;89.40;;;;;;5054201;28;20496;-69
2022/10/04 13:11:05;;;;;;;4.20;2.10;;;16.80;85.50;;;;;;5054150;28;20503;-69
2022/10/04 13:13:51;;;;;;;3.65;2.08;;;16.90;88.30;;;;;;5053614;28;20048;-67
2022/10/04 13:16:41;;;;;;;10.00;2.83;;;16.90;85.30;;;;;;5053881;28;20131;-68
2022/10/04 13:19:27;;;;;;;3.35;2.00;;;16.90;88.80;;;;;;5053380;28;20101;-68
2022/10/04 13:22:12;;;;;;;3.50;2.33;;;16.80;85.50;;;;;;5053573;28;20389;-69
2022/10/04 13:24:56;;;;;;;3.45;2.28;;;16.80;86.50;;;;;;5037088;28;20095;-71
2022/10/04 13:27:47;;;;;;;3.85;2.10;;;16.70;86.70;;;;;;5053649;28;20102;-70
2022/10/04 13:30:27;;;;;;;5.47;1.88;;;16.60;79.90;;;;;;5053492;28;20178;-68
2022/10/04 13:33:13;;;;;;;3.45;2.33;;;16.60;82.60;;;;;;5053803;28;20522;-67
2022/10/04 13:35:49;;;;;;;9.50;2.88;;;16.60;79.80;;;;;;5053829;28;20491;-67
2022/10/04 13:38:39;;;;;;;5.15;2.53;;;16.60;76.80;;;;;;5053655;28;20048;-68
2022/10/04 13:41:13;;;;;;;3.42;2.20;;;16.60;78.50;;;;;;5071164;28;20040;-68
2022/10/04 13:43:57;;;;;;;4.63;2.47;;;16.60;81.10;;;;;;5053352;28;20032;-69
2022/10/04 13:46:23;;;;;;;4.15;2.67;;;16.60;83.00;;;;;;5053255;28;20040;-68
2022/10/04 13:49:17;;;;;;;3.45;2.20;;;16.60;86.70;;;;;;5053189;28;20058;-69
2022/10/04 13:58:30;;;;;;;5.40;2.78;;;16.70;86.90;;;;;;5053529;28;20043;-70
2022/10/04 14:01:02;;;;;;;4.70;2.92;;;16.70;81.30;;;;;;5052964;28;20036;-68
2022/10/04 14:03:41;;;;;;;5.95;2.40;;;16.60;76.30;;;;;;5071380;28;20041;-68
2022/10/04 14:06:31;;;;;;;3.75;2.13;;;16.60;79.80;;;;;;5071012;28;20103;-68
2022/10/04 14:09:32;;;;;;;4.00;1.90;;;16.50;85.30;;;;;;5053090;28;20048;-67
2022/10/04 14:12:14;;;;;;;3.92;2.28;;;16.50;79.70;;;;;;4986512;28;20048;-68
2022/10/04 14:14:55;;;;;;;5.35;2.63;;;16.50;87.90;;;;;;5070957;28;20111;-67
2022/10/04 14:17:24;;;;;;;8.13;2.60;;;16.50;86.20;;;;;;5071256;28;20040;-67